Time;durP1;ratioP1;P1;durP2;ratioP2;P2;SDS_P1;SDS_P2;PMS_P1;PMS_P2;Temp;Humidity;BMP_temperature;BMP_pressure;BME280_temperature;BME280_humidity;BME280_pressure;Samples;Min_cycle;Max_cycle;Signal;HPM_P1;HPM_P2
2022/06/24 00:00:13;;;;;;;;;8.00;6.25;;;;;24.33;52.14;99961.66;5075478;28;45359;-68
2022/06/24 00:02:40;;;;;;;;;6.50;6.00;;;;;24.29;52.58;99957.63;5074845;27;45874;-68
2022/06/24 00:05:11;;;;;;;;;10.75;9.00;;;;;24.19;52.87;99955.94;5074897;27;45384;-69
2022/06/24 00:07:53;;;;;;;;;8.00;7.50;;;;;24.18;53.59;99966.81;5073910;28;45449;-69
2022/06/24 00:10:20;;;;;;;;;5.25;5.25;;;;;24.15;53.50;99964.47;5075012;27;45510;-69
2022/06/24 00:12:47;;;;;;;;;10.00;9.00;;;;;24.10;53.70;99956.91;5074932;27;46615;-69
2022/06/24 00:15:14;;;;;;;;;6.00;6.00;;;;;24.08;54.25;99967.00;5075076;27;45323;-69
2022/06/24 00:17:40;;;;;;;;;7.50;4.75;;;;;24.02;54.17;99970.34;5074584;27;45402;-69
2022/06/24 00:20:09;;;;;;;;;6.00;6.00;;;;;23.96;54.90;99970.97;5074952;27;45430;-67
2022/06/24 00:22:44;;;;;;;;;6.50;6.50;;;;;23.90;54.76;99969.75;5073921;27;46385;-68
2022/06/24 00:25:20;;;;;;;;;5.75;5.75;;;;;23.82;54.97;99969.75;5074344;27;45201;-68
2022/06/24 00:28:08;;;;;;;;;6.00;6.00;;;;;23.74;55.19;99976.78;5074987;27;45433;-67
2022/06/24 00:30:38;;;;;;;;;4.00;4.00;;;;;23.69;55.85;99975.56;5074589;27;45396;-69
2022/06/24 00:33:21;;;;;;;;;5.75;5.50;;;;;23.63;56.14;99963.66;5074422;28;45327;-68
2022/06/24 00:35:49;;;;;;;;;5.25;5.25;;;;;23.61;56.08;99973.72;5074843;27;45320;-68
2022/06/24 00:38:29;;;;;;;;;3.75;3.75;;;;;23.55;56.65;99966.31;5074973;27;45348;-68
2022/06/24 00:41:04;;;;;;;;;5.75;5.50;;;;;23.50;56.62;99964.09;5074929;27;45455;-68
2022/06/24 00:43:43;;;;;;;;;11.75;11.75;;;;;23.45;56.42;99959.22;5074215;27;46207;-69
2022/06/24 00:46:14;;;;;;;;;5.50;5.50;;;;;23.44;57.03;99967.41;5077951;27;45325;-67
2022/06/24 00:48:46;;;;;;;;;5.00;5.00;;;;;23.43;57.27;99971.97;5078052;27;45391;-68
2022/06/24 00:51:11;;;;;;;;;6.25;4.75;;;;;23.40;57.11;99977.66;5076813;28;45400;-68
2022/06/24 00:53:45;;;;;;;;;7.75;7.75;;;;;23.38;57.44;99968.91;5077776;27;46287;-69
2022/06/24 00:56:13;;;;;;;;;5.00;5.00;;;;;23.34;57.19;99965.69;5077797;27;45430;-68
2022/06/24 00:58:39;;;;;;;;;8.75;5.25;;;;;23.35;57.09;99963.88;5078011;27;45372;-69
2022/06/24 01:01:04;;;;;;;;;8.75;8.75;;;;;23.28;57.05;99952.91;5078201;27;45337;-69
2022/06/24 01:03:40;;;;;;;;;5.75;5.75;;;;;23.31;56.96;99959.78;5093457;27;46098;-69
2022/06/24 01:06:06;;;;;;;;;5.00;5.00;;;;;23.31;56.45;99960.66;5077606;27;45173;-68
2022/06/24 01:08:31;;;;;;;;;5.25;4.50;;;;;23.18;56.51;99942.28;5077829;27;45181;-69
2022/06/24 01:10:57;;;;;;;;;3.75;3.25;;;;;23.28;57.16;99962.81;5077920;27;45244;-69
2022/06/24 01:13:23;;;;;;;;;6.75;4.00;;;;;23.28;56.89;99960.13;5077444;27;45644;-69
2022/06/24 01:15:48;;;;;;;;;5.00;5.00;;;;;23.26;56.35;99952.25;5077713;27;45365;-68
2022/06/24 01:18:13;;;;;;;;;3.50;3.25;;;;;23.29;56.52;99954.59;5077543;27;45207;-68
2022/06/24 01:20:39;;;;;;;;;4.25;4.25;;;;;23.31;56.30;99952.59;5077342;27;45700;-68
2022/06/24 01:23:04;;;;;;;;;3.50;3.50;;;;;23.32;56.00;99948.06;5077457;27;46395;-68
2022/06/24 01:25:31;;;;;;;;;4.75;4.75;;;;;23.27;56.35;99942.34;5077932;27;45756;-69
2022/06/24 01:27:57;;;;;;;;;6.50;6.50;;;;;23.30;56.33;99945.56;5077506;27;45385;-69
2022/06/24 01:30:23;;;;;;;;;5.25;5.25;;;;;23.29;56.38;99943.88;5077701;28;45493;-68
2022/06/24 01:32:48;;;;;;;;;4.75;4.75;;;;;23.22;56.00;99940.13;5077498;28;45432;-68
2022/06/24 01:35:14;;;;;;;;;3.50;3.50;;;;;23.25;55.97;99947.88;5077240;27;45359;-68
2022/06/24 01:37:39;;;;;;;;;6.00;6.00;;;;;23.23;55.91;99949.84;5077285;27;45581;-67
2022/06/24 01:40:06;;;;;;;;;3.00;3.00;;;;;23.19;55.62;99952.00;5077707;27;45565;-68
2022/06/24 01:42:31;;;;;;;;;2.75;2.75;;;;;23.18;55.82;99960.22;5077159;27;45165;-68
2022/06/24 01:44:56;;;;;;;;;5.00;5.00;;;;;23.17;56.21;99961.22;5077167;27;45197;-69
2022/06/24 01:47:21;;;;;;;;;3.75;3.75;;;;;23.14;56.52;99962.38;5077649;27;45246;-68
2022/06/24 01:49:47;;;;;;;;;3.00;3.00;;;;;23.08;57.08;99981.78;5077595;27;45531;-69
2022/06/24 01:52:12;;;;;;;;;4.00;4.00;;;;;22.93;57.38;99969.94;5076795;27;45254;-68
2022/06/24 01:54:37;;;;;;;;;5.00;4.00;;;;;22.90;58.18;99974.63;5076961;27;45274;-67
2022/06/24 01:57:03;;;;;;;;;3.00;3.00;;;;;22.83;58.70;99975.44;5077055;27;45231;-68
2022/06/24 01:59:28;;;;;;;;;5.25;4.25;;;;;;;;5077068;27;45602;-67
2022/06/24 02:01:54;;;;;;;;;8.50;3.75;;;;;22.55;61.34;99973.69;5076824;27;45271;-69
2022/06/24 02:04:19;;;;;;;;;6.25;6.25;;;;;22.29;62.82;99981.63;5076979;27;45211;-69
2022/06/24 02:06:44;;;;;;;;;4.75;4.75;;;;;22.08;64.37;99976.56;5076828;27;45259;-68
2022/06/24 02:09:10;;;;;;;;;6.00;6.00;;;;;21.88;65.54;99974.00;5077127;27;45216;-69
2022/06/24 02:14:19;;;;;;;;;6.25;6.25;;;;;21.66;66.96;99973.44;5076857;28;45307;-67
2022/06/24 02:16:45;;;;;;;;;7.25;6.25;;;;;21.58;67.95;99967.97;5076617;27;45428;-68
2022/06/24 02:19:11;;;;;;;;;7.75;7.75;;;;;21.46;68.43;99956.59;5075514;28;45479;-67
2022/06/24 02:21:36;;;;;;;;;4.25;4.25;;;;;21.41;68.22;99959.72;5076599;28;45544;-68
2022/06/24 02:24:03;;;;;;;;;5.25;5.25;;;;;21.34;68.81;99960.44;5076528;27;45325;-69
2022/06/24 02:26:28;;;;;;;;;7.00;6.50;;;;;21.32;68.70;99976.66;5076799;27;45462;-68
2022/06/24 02:28:54;;;;;;;;;5.25;5.25;;;;;21.24;67.05;99973.88;5076459;27;45381;-68
2022/06/24 02:31:20;;;;;;;;;5.25;5.25;;;;;21.19;67.94;99979.66;5076682;28;45428;-68
2022/06/24 02:33:48;;;;;;;;;2.50;2.50;;;;;21.17;68.26;99979.78;5076338;27;45349;-68
2022/06/24 02:36:14;;;;;;;;;3.25;3.25;;;;;21.20;67.92;99985.81;5076598;27;45483;-68
2022/06/24 02:38:40;;;;;;;;;4.50;4.25;;;;;21.16;67.29;99988.78;5076425;27;45234;-68
2022/06/24 02:41:06;;;;;;;;;6.75;4.00;;;;;21.04;67.48;99965.06;5076021;27;45461;-68
2022/06/24 02:43:34;;;;;;;;;5.25;5.25;;;;;20.77;82.03;99962.13;5076259;27;45380;-68
2022/06/24 02:46:05;;;;;;;;;10.75;7.75;;;;;20.38;85.73;99943.47;5074854;28;45492;-68
2022/06/24 02:48:33;;;;;;;;;5.00;5.00;;;;;20.02;88.63;99941.34;5076136;27;45340;-68
2022/06/24 02:51:00;;;;;;;;;7.50;7.00;;;;;19.69;90.37;99938.84;5075852;28;45331;-69
2022/06/24 02:53:26;;;;;;;;;7.50;7.50;;;;;19.53;90.32;99936.69;5075994;27;45266;-69
2022/06/24 02:55:54;;;;;;;;;6.25;5.00;;;;;19.38;87.60;99948.72;5076393;28;45444;-68
2022/06/24 02:58:20;;;;;;;;;9.25;9.25;;;;;19.21;88.63;99935.03;5076543;27;45366;-68
2022/06/24 03:00:45;;;;;;;;;8.50;8.50;;;;;19.19;85.21;99933.50;5075707;27;45903;-68
2022/06/24 03:03:12;;;;;;;;;8.25;8.25;;;;;19.11;86.47;99937.69;5075810;27;45421;-68
2022/06/24 03:05:38;;;;;;;;;7.00;7.00;;;;;19.08;86.29;99929.09;5091642;27;45327;-70
2022/06/24 03:08:04;;;;;;;;;6.25;6.25;;;;;19.04;83.30;99931.16;5075609;27;45318;-69
2022/06/24 03:10:31;;;;;;;;;7.25;7.25;;;;;19.02;82.34;99938.44;5075229;27;45953;-69
2022/06/24 03:12:56;;;;;;;;;8.00;8.00;;;;;19.01;82.73;99925.28;5075837;28;45308;-69
2022/06/24 03:15:21;;;;;;;;;8.00;8.00;;;;;19.05;83.16;99926.69;5075962;27;45254;-69
2022/06/24 03:17:47;;;;;;;;;10.00;10.00;;;;;19.14;83.22;99925.88;5076097;27;45459;-69
2022/06/24 03:20:12;;;;;;;;;9.75;8.00;;;;;19.24;82.38;99937.44;5075623;27;45999;-69
2022/06/24 03:22:39;;;;;;;;;10.75;10.25;;;;;19.32;82.29;99923.44;5075377;27;45345;-69
2022/06/24 03:25:05;;;;;;;;;6.25;6.25;;;;;19.33;80.94;99917.13;5074342;28;45348;-70
2022/06/24 03:27:31;;;;;;;;;7.00;7.00;;;;;19.45;80.61;99922.38;5076241;27;45539;-69
2022/06/24 03:29:56;;;;;;;;;8.75;8.75;;;;;19.45;80.12;99906.38;5075917;27;45388;-68
2022/06/24 03:32:21;;;;;;;;;9.25;9.00;;;;;19.53;79.50;99922.53;5075921;27;45342;-68
2022/06/24 03:34:47;;;;;;;;;10.00;10.00;;;;;19.54;78.97;99925.03;5075491;27;45444;-68
2022/06/24 03:37:12;;;;;;;;;7.00;7.00;;;;;19.62;79.03;99929.72;5075653;27;45603;-68
2022/06/24 03:39:38;;;;;;;;;7.75;7.50;;;;;19.67;78.90;99926.66;5090867;27;47131;-68
2022/06/24 03:42:04;;;;;;;;;9.00;9.00;;;;;19.70;78.38;99929.88;5075243;27;45513;-68
2022/06/24 03:44:29;;;;;;;;;8.50;7.75;;;;;19.72;78.61;99921.75;5075286;27;45331;-68
2022/06/24 03:46:55;;;;;;;;;6.75;6.75;;;;;19.79;78.97;99930.03;5075753;27;45771;-67
2022/06/24 03:49:20;;;;;;;;;7.50;7.50;;;;;19.79;78.31;99920.22;5075109;27;45286;-68
2022/06/24 03:51:46;;;;;;;;;7.75;7.00;;;;;19.80;77.70;99927.25;5075291;27;45287;-69
2022/06/24 03:54:11;;;;;;;;;9.75;9.75;;;;;19.82;78.00;99922.59;5075182;27;45271;-68
2022/06/24 03:56:37;;;;;;;;;7.25;6.25;;;;;19.84;77.12;99922.44;5075186;27;45276;-68
2022/06/24 03:59:02;;;;;;;;;7.25;7.25;;;;;19.81;77.56;99917.41;5074710;28;45334;-68
2022/06/24 04:01:28;;;;;;;;;10.50;10.00;;;;;19.81;77.24;99917.41;5075379;27;45275;-68
2022/06/24 04:03:53;;;;;;;;;8.25;7.75;;;;;19.82;77.97;99919.06;5075346;27;45380;-68
2022/06/24 04:06:19;;;;;;;;;5.00;5.00;;;;;19.79;78.19;99909.53;5075303;27;45311;-70
2022/06/24 04:08:44;;;;;;;;;6.00;6.00;;;;;19.78;78.37;99912.34;5074804;27;45276;-68
2022/06/24 04:11:16;;;;;;;;;7.00;7.00;;;;;19.78;78.18;99917.66;5074949;27;45444;-68
2022/06/24 04:13:43;;;;;;;;;7.25;7.00;;;;;19.75;77.92;99913.47;5075053;27;45484;-67
2022/06/24 04:16:09;;;;;;;;;7.00;7.00;;;;;19.70;77.69;99918.38;5075001;27;45484;-68
2022/06/24 04:18:35;;;;;;;;;7.50;7.50;;;;;19.67;78.06;99924.81;5074660;27;45462;-68
2022/06/24 04:21:00;;;;;;;;;9.75;8.25;;;;;19.65;78.37;99926.78;5078198;27;45401;-68
2022/06/24 04:23:26;;;;;;;;;9.00;9.00;;;;;19.63;78.20;99922.56;5078820;27;45545;-68
2022/06/24 04:25:52;;;;;;;;;8.50;8.50;;;;;19.66;78.65;99930.31;5078883;27;45285;-69
2022/06/24 04:28:18;;;;;;;;;6.00;6.00;;;;;19.66;78.56;99924.97;5078207;27;45344;-69
2022/06/24 04:30:43;;;;;;;;;7.75;7.75;;;;;19.66;78.04;99931.13;5078428;27;45424;-68
2022/06/24 04:33:09;;;;;;;;;7.00;7.00;;;;;19.66;78.90;99928.47;5078441;27;45433;-68
2022/06/24 04:35:35;;;;;;;;;7.50;7.50;;;;;19.70;78.81;99932.53;5077243;28;45546;-69
2022/06/24 04:38:01;;;;;;;;;8.00;8.00;;;;;19.79;78.05;99930.03;5078110;27;46439;-67
2022/06/24 04:40:26;;;;;;;;;9.00;7.75;;;;;19.83;77.61;99936.78;5078496;27;45192;-68
2022/06/24 04:42:52;;;;;;;;;9.50;6.00;;;;;19.85;77.95;99927.66;5076565;28;45388;-68
2022/06/24 04:45:17;;;;;;;;;6.25;6.25;;;;;19.90;78.05;99934.44;5078284;27;45248;-68
2022/06/24 04:47:43;;;;;;;;;10.00;9.00;;;;;19.97;77.77;99927.56;5076373;28;46188;-68
2022/06/24 04:50:09;;;;;;;;;6.25;6.25;;;;;20.07;78.04;99920.41;5077954;27;45373;-68
2022/06/24 04:52:36;;;;;;;;;6.75;6.75;;;;;20.21;77.45;99929.84;5078106;27;45325;-68
2022/06/24 04:55:03;;;;;;;;;23.25;22.75;;;;;20.27;76.37;99931.09;5078161;28;45504;-69
2022/06/24 04:57:28;;;;;;;;;8.00;6.50;;;;;20.36;76.18;99934.75;5078025;27;45431;-67
2022/06/24 04:59:54;;;;;;;;;8.00;7.25;;;;;20.44;75.99;99926.88;5076508;28;45408;-68
2022/06/24 05:02:19;;;;;;;;;5.00;5.00;;;;;20.53;75.60;99926.03;5077950;27;45320;-69
2022/06/24 05:04:45;;;;;;;;;8.25;8.25;;;;;20.62;74.66;99932.31;5078103;27;45497;-69
2022/06/24 05:07:10;;;;;;;;;11.50;9.50;;;;;20.67;75.29;99918.53;5077687;27;46468;-68
2022/06/24 05:09:36;;;;;;;;;7.50;7.50;;;;;20.68;74.54;99912.22;5077900;27;45353;-68
2022/06/24 05:12:01;;;;;;;;;9.00;7.50;;;;;20.95;73.99;99927.53;5077588;27;45280;-67
2022/06/24 05:14:28;;;;;;;;;8.00;8.00;;;;;21.15;73.79;99933.63;5078426;27;45197;-69
2022/06/24 05:16:53;;;;;;;;;8.50;8.50;;;;;21.30;72.94;99938.53;5077815;27;46630;-69
2022/06/24 05:19:18;;;;;;;;;7.50;6.25;;;;;21.32;72.64;99944.56;5077509;27;45231;-69
2022/06/24 05:21:44;;;;;;;;;6.50;5.00;;;;;21.30;72.61;99941.19;5078022;27;45221;-68
2022/06/24 05:24:09;;;;;;;;;8.75;7.75;;;;;21.27;72.29;99933.47;5077678;27;45277;-68
2022/06/24 05:26:34;;;;;;;;;6.25;6.25;;;;;21.19;72.09;99927.97;5077463;27;45834;-69
2022/06/24 05:29:00;;;;;;;;;6.75;6.75;;;;;21.11;71.73;99932.22;5077769;27;45342;-68
2022/06/24 05:31:26;;;;;;;;;7.25;5.25;;;;;20.98;71.27;99931.72;5092874;27;45410;-69
2022/06/24 05:33:51;;;;;;;;;7.75;6.50;;;;;20.96;71.40;99931.88;5077398;27;45572;-69
2022/06/24 05:36:16;;;;;;;;;6.50;6.50;;;;;21.08;71.66;99937.03;5077237;27;45361;-69
2022/06/24 05:38:42;;;;;;;;;9.25;9.00;;;;;21.20;71.54;99938.53;5077224;27;45631;-68
2022/06/24 05:41:08;;;;;;;;;8.00;7.00;;;;;21.26;71.14;99929.09;5077328;27;45445;-69
2022/06/24 05:43:33;;;;;;;;;10.75;9.25;;;;;21.35;70.85;99938.91;5077118;27;45457;-67
2022/06/24 05:45:59;;;;;;;;;10.00;9.50;;;;;21.43;70.79;99938.16;5077205;27;46275;-69
2022/06/24 05:48:24;;;;;;;;;11.00;8.50;;;;;21.47;70.51;99936.03;5077060;27;45426;-68
2022/06/24 05:50:49;;;;;;;;;10.00;7.50;;;;;21.45;70.18;99941.53;5077114;27;45384;-70
2022/06/24 05:56:00;;;;;;;;;7.25;7.25;;;;;21.43;70.02;99955.06;5077832;28;45808;-69
2022/06/24 05:58:27;;;;;;;;;7.75;7.75;;;;;21.35;69.90;99946.09;5092954;27;45220;-69
2022/06/24 06:00:57;;;;;;;;;8.50;7.50;;;;;21.32;69.35;99952.59;5075220;28;45425;-69
2022/06/24 06:03:23;;;;;;;;;12.00;12.00;;;;;21.29;70.05;99945.69;5076534;27;45350;-70
2022/06/24 06:05:49;;;;;;;;;8.75;8.75;;;;;21.29;69.72;99948.38;5076397;28;45418;-73
2022/06/24 06:08:16;;;;;;;;;8.25;6.50;;;;;21.25;69.77;99959.53;5075655;27;45416;-71
2022/06/24 06:10:43;;;;;;;;;12.50;12.50;;;;;21.23;69.92;99953.47;5102897;27;45525;-71
2022/06/24 06:13:09;;;;;;;;;8.00;8.00;;;;;21.15;69.70;99947.00;5075746;27;45411;-68
2022/06/24 06:15:34;;;;;;;;;10.00;10.00;;;;;21.16;69.37;99955.88;5075834;27;46395;-70
2022/06/24 06:18:01;;;;;;;;;6.25;6.25;;;;;21.16;69.35;99964.72;5081905;27;45449;-70
2022/06/24 06:20:27;;;;;;;;;7.75;7.75;;;;;21.19;69.65;99960.94;5076009;27;45432;-68
2022/06/24 06:22:52;;;;;;;;;8.25;7.75;;;;;21.27;68.58;99970.91;5075692;27;45361;-69
2022/06/24 06:25:17;;;;;;;;;7.00;7.00;;;;;21.29;68.56;99967.09;5075636;27;46272;-68
2022/06/24 06:27:44;;;;;;;;;7.00;6.25;;;;;21.29;67.72;99979.63;5075786;27;45384;-70
2022/06/24 06:30:09;;;;;;;;;8.75;6.25;;;;;21.22;67.68;99975.84;5076004;27;45318;-70
2022/06/24 06:32:35;;;;;;;;;8.75;7.50;;;;;21.22;67.56;99975.84;5076133;27;45835;-70
2022/06/24 06:35:00;;;;;;;;;6.75;6.75;;;;;21.21;67.65;99976.84;5075444;27;45742;-71
2022/06/24 06:37:26;;;;;;;;;9.50;8.00;;;;;21.22;67.82;99970.50;5075360;27;45234;-69
2022/06/24 06:39:51;;;;;;;;;6.00;6.00;;;;;21.26;67.73;99970.06;5075983;28;45271;-69
2022/06/24 06:42:16;;;;;;;;;7.00;7.00;;;;;21.26;67.15;99969.22;5074695;27;45198;-71
2022/06/24 06:44:42;;;;;;;;;7.75;7.75;;;;;21.28;67.09;99975.28;5075739;27;45988;-69
2022/06/24 06:47:07;;;;;;;;;5.50;4.50;;;;;21.27;66.57;99973.59;5075588;27;45413;-69
2022/06/24 06:49:33;;;;;;;;;8.75;8.00;;;;;21.31;66.82;99970.47;5076468;27;45561;-70
2022/06/24 06:52:02;;;;;;;;;9.00;6.75;;;;;21.39;66.44;99977.75;5076052;28;45371;-70
2022/06/24 06:54:29;;;;;;;;;5.00;5.00;;;;;21.53;66.83;99978.25;5075705;27;47111;-69
2022/06/24 06:56:55;;;;;;;;;7.75;7.25;;;;;21.68;65.85;99984.84;5075708;27;45409;-69
2022/06/24 06:59:21;;;;;;;;;5.50;5.00;;;;;21.81;65.51;99976.47;5075366;27;45247;-69
2022/06/24 07:01:46;;;;;;;;;6.50;5.00;;;;;22.01;64.67;99979.03;5076015;27;45813;-70
2022/06/24 07:04:11;;;;;;;;;6.00;4.50;;;;;22.11;64.26;99969.09;5075560;27;46252;-70
2022/06/24 07:06:37;;;;;;;;;4.75;4.75;;;;;22.27;64.10;99987.16;5075492;27;45159;-70
2022/06/24 07:09:02;;;;;;;;;6.00;6.00;;;;;22.36;63.62;99981.88;5076219;27;45271;-69
2022/06/24 07:11:28;;;;;;;;;0.00;0.00;;;;;22.42;63.27;99979.41;5075639;27;45675;-70
2022/06/24 07:13:54;;;;;;;;;5.50;4.50;;;;;22.44;63.00;99972.06;5074031;28;46097;-69
2022/06/24 07:16:20;;;;;;;;;5.25;5.25;;;;;22.51;62.63;99966.13;5075228;27;45468;-69
2022/06/24 07:18:45;;;;;;;;;9.75;6.75;;;;;22.53;62.84;99964.13;5075181;27;45538;-69
2022/06/24 07:21:12;;;;;;;;;4.50;4.50;;;;;22.61;62.25;99970.41;5075634;27;45563;-70
2022/06/24 07:23:38;;;;;;;;;6.75;6.75;;;;;22.66;62.03;99969.91;5075090;27;46060;-70
2022/06/24 07:26:03;;;;;;;;;6.00;6.00;;;;;22.82;62.20;99963.84;5075265;27;45363;-69
2022/06/24 07:28:28;;;;;;;;;8.00;6.50;;;;;22.94;61.85;99959.06;5074933;27;45228;-70
2022/06/24 07:30:54;;;;;;;;;6.00;6.00;;;;;23.07;61.10;99961.31;5090710;27;45348;-69
2022/06/24 07:33:19;;;;;;;;;8.00;6.50;;;;;23.17;60.54;99955.84;5074820;27;46907;-70
2022/06/24 07:35:45;;;;;;;;;6.00;4.50;;;;;23.18;60.22;99958.38;5074943;27;45456;-69
2022/06/24 07:38:10;;;;;;;;;6.00;6.00;;;;;23.24;59.61;99961.44;5075325;27;45424;-70
2022/06/24 07:40:36;;;;;;;;;4.75;3.25;;;;;23.28;59.87;99962.81;5075892;27;45228;-70
2022/06/24 07:43:01;;;;;;;;;7.25;6.25;;;;;23.44;60.19;99956.69;5075165;27;46357;-69
2022/06/24 07:45:26;;;;;;;;;8.50;5.75;;;;;23.60;59.88;99953.22;5075150;27;45262;-69
2022/06/24 07:47:52;;;;;;;;;5.50;5.50;;;;;23.80;59.76;99952.97;5073710;28;45260;-71
2022/06/24 07:50:18;;;;;;;;;5.50;5.25;;;;;23.92;58.82;99955.19;5075225;27;45568;-71
2022/06/24 07:52:44;;;;;;;;;4.75;4.75;;;;;24.05;58.66;99949.34;5074921;27;46201;-69
2022/06/24 07:57:53;;;;;;;;;4.25;4.25;;;;;24.36;58.01;99943.31;5075058;28;45299;-69
2022/06/24 08:00:19;;;;;;;;;5.25;5.00;;;;;24.45;57.67;99948.72;5075007;27;45571;-69
2022/06/24 08:02:44;;;;;;;;;7.00;6.00;;;;;24.46;57.05;99945.03;5074760;28;45361;-69
2022/06/24 08:05:10;;;;;;;;;5.00;5.00;;;;;24.44;57.08;99949.72;5090707;27;45328;-69
2022/06/24 08:07:35;;;;;;;;;4.00;4.00;;;;;24.49;56.55;99953.59;5075397;27;45197;-69
2022/06/24 08:10:00;;;;;;;;;5.00;5.00;;;;;24.45;56.59;99951.41;5075000;27;45609;-69
2022/06/24 08:12:26;;;;;;;;;4.25;4.25;;;;;24.43;56.31;99956.94;5074678;27;46168;-70
2022/06/24 08:14:51;;;;;;;;;5.75;5.75;;;;;24.38;55.73;99947.69;5074679;27;45377;-69
2022/06/24 08:17:16;;;;;;;;;4.00;4.00;;;;;24.23;55.77;99944.84;5090946;27;45339;-70
2022/06/24 08:19:42;;;;;;;;;5.50;4.50;;;;;24.31;56.40;99969.03;5076009;27;45385;-69
2022/06/24 08:22:08;;;;;;;;;6.75;6.00;;;;;24.31;56.12;99963.66;5075001;28;45808;-70
2022/06/24 08:24:33;;;;;;;;;5.00;5.00;;;;;24.35;55.58;99967.69;5074541;27;45305;-69
2022/06/24 08:26:59;;;;;;;;;4.25;4.25;;;;;24.33;55.17;99964.34;5074834;27;45486;-70
2022/06/24 08:29:24;;;;;;;;;6.00;4.50;;;;;24.42;56.10;99960.63;5074953;27;45481;-70
2022/06/24 08:31:49;;;;;;;;;3.50;3.50;;;;;24.65;55.47;99965.34;5074519;27;46246;-70
2022/06/24 08:34:15;;;;;;;;;3.00;3.00;;;;;24.80;54.53;99957.47;5074403;27;45369;-69
2022/06/24 08:36:40;;;;;;;;;5.00;5.00;;;;;24.90;54.28;99958.13;5075010;27;45474;-69
2022/06/24 08:39:06;;;;;;;;;5.00;5.00;;;;;24.93;53.82;99963.16;5074652;27;45432;-69
2022/06/24 08:41:32;;;;;;;;;7.00;5.50;;;;;24.86;53.89;99962.16;5074260;28;46436;-70
2022/06/24 08:43:58;;;;;;;;;5.00;5.00;;;;;24.80;54.21;99965.53;5072655;27;45307;-70
2022/06/24 08:46:25;;;;;;;;;5.50;5.50;;;;;24.82;54.35;99960.81;5074335;28;45242;-69
2022/06/24 08:48:51;;;;;;;;;7.00;7.00;;;;;24.89;53.65;99948.38;5074116;27;45440;-69
2022/06/24 08:51:18;;;;;;;;;9.75;5.50;;;;;25.09;53.70;99950.69;5055899;28;47202;-70
2022/06/24 08:53:47;;;;;;;;;4.75;4.75;;;;;25.22;53.02;99945.59;5073182;28;45522;-70
2022/06/24 08:56:12;;;;;;;;;7.00;7.00;;;;;25.34;52.63;99938.00;5074804;27;45370;-69
2022/06/24 08:58:39;;;;;;;;;8.00;6.00;;;;;25.46;52.45;99943.00;5074762;28;45458;-70
2022/06/24 09:01:05;;;;;;;;;5.75;5.75;;;;;25.32;51.56;99929.25;5072974;28;47125;-70
2022/06/24 09:03:30;;;;;;;;;5.50;5.50;;;;;25.25;51.59;99928.28;5073878;27;45280;-70
2022/06/24 09:05:55;;;;;;;;;6.25;6.25;;;;;25.32;51.45;99931.94;5075722;27;45156;-70
2022/06/24 09:08:21;;;;;;;;;4.25;4.25;;;;;25.46;51.95;99926.88;5077710;27;45417;-70
2022/06/24 09:11:06;;;;;;;;;4.00;4.00;;;;;25.63;51.14;99916.88;5077224;27;45828;-70
2022/06/24 09:14:00;;;;;;;;;4.75;4.75;;;;;25.73;50.28;99919.31;5077344;27;45338;-69
2022/06/24 09:16:26;;;;;;;;;5.25;4.25;;;;;25.68;50.01;99919.88;5077408;27;45210;-70
2022/06/24 09:18:52;;;;;;;;;4.75;3.00;;;;;25.63;50.35;99924.94;5077527;27;45356;-69
2022/06/24 09:21:30;;;;;;;;;5.50;4.00;;;;;25.46;49.70;99914.25;5077251;27;46337;-70
2022/06/24 09:23:58;;;;;;;;;2.50;2.50;;;;;25.26;48.91;99915.63;5076718;28;45269;-70
2022/06/24 09:26:38;;;;;;;;;3.50;2.00;;;;;25.13;49.74;99908.94;5092683;27;45405;-69
2022/06/24 09:29:06;;;;;;;;;3.75;3.50;;;;;25.15;50.09;99917.69;5076855;27;45365;-69
2022/06/24 09:31:32;;;;;;;;;2.75;2.75;;;;;25.21;50.45;99906.22;5076594;27;45374;-69
2022/06/24 09:34:12;;;;;;;;;5.25;3.75;;;;;25.36;50.13;99905.50;5076742;27;45460;-69
2022/06/24 09:36:42;;;;;;;;;2.25;2.25;;;;;25.50;49.86;99896.75;5076968;27;45470;-69
2022/06/24 09:39:11;;;;;;;;;3.75;3.75;;;;;25.60;49.42;99890.28;5077078;27;45346;-69
2022/06/24 09:41:47;;;;;;;;;3.00;3.00;;;;;25.66;48.62;99903.88;5077093;27;46191;-70
2022/06/24 09:44:14;;;;;;;;;3.50;2.75;;;;;25.74;48.80;99862.59;5092562;27;45554;-69
2022/06/24 09:46:40;;;;;;;;;4.00;4.00;;;;;26.10;48.74;99874.63;5076944;28;45813;-70
2022/06/24 09:49:16;;;;;;;;;4.00;3.00;;;;;26.31;47.79;99879.34;5092446;27;45312;-68
2022/06/24 09:51:44;;;;;;;;;3.00;3.00;;;;;26.49;47.86;99880.88;5075724;28;46078;-69
2022/06/24 09:54:10;;;;;;;;;3.00;3.00;;;;;26.62;46.83;99889.19;5076773;27;45271;-70
2022/06/24 09:56:37;;;;;;;;;5.00;2.00;;;;;26.77;47.12;99881.09;5076999;27;45416;-69
2022/06/24 10:01:48;;;;;;;;;1.00;1.00;;;;;26.92;45.59;99889.22;5076872;28;45329;-70
2022/06/24 10:04:18;;;;;;;;;4.50;3.00;;;;;26.97;44.14;99877.88;5076778;27;45377;-70
2022/06/24 10:06:46;;;;;;;;;1.50;1.50;;;;;26.88;45.35;99885.22;5077103;28;45278;-70
2022/06/24 10:09:12;;;;;;;;;7.50;6.00;;;;;26.90;45.15;99883.19;5077102;27;45452;-70
2022/06/24 10:11:40;;;;;;;;;14.00;14.00;;;;;26.78;45.82;99879.25;5075814;28;45519;-70
2022/06/24 10:14:07;;;;;;;;;4.75;3.75;;;;;26.70;44.63;99885.56;5076720;28;45406;-70
2022/06/24 10:16:32;;;;;;;;;1.25;1.25;;;;;26.62;44.77;99883.78;5075437;27;45326;-70
2022/06/24 10:19:01;;;;;;;;;7.75;5.75;;;;;26.56;44.82;99880.97;5076585;28;45588;-70
2022/06/24 10:21:27;;;;;;;;;3.00;2.75;;;;;26.46;45.23;99870.44;5092209;27;46050;-69
2022/06/24 10:23:53;;;;;;;;;6.25;6.25;;;;;26.42;45.64;99877.22;5076153;27;45436;-71
2022/06/24 10:26:28;;;;;;;;;2.75;2.75;;;;;26.29;45.84;99881.38;5075828;28;45448;-69
2022/06/24 10:28:59;;;;;;;;;9.00;7.75;;;;;26.23;45.79;99887.50;5076053;27;45535;-69
2022/06/24 10:31:37;;;;;;;;;12.50;12.50;;;;;26.18;45.72;99879.13;5076088;27;45368;-69
2022/06/24 10:34:02;;;;;;;;;7.00;5.00;;;;;26.13;46.44;99881.50;5075788;28;45290;-70
2022/06/24 10:36:31;;;;;;;;;5.00;5.00;;;;;26.16;45.91;99876.63;5075956;27;45235;-70
2022/06/24 10:39:09;;;;;;;;;6.00;4.00;;;;;26.15;46.27;99874.94;5076351;27;45201;-68
2022/06/24 10:41:39;;;;;;;;;5.00;5.00;;;;;26.03;46.17;99865.59;5075549;27;45454;-70
2022/06/24 10:44:25;;;;;;;;;7.00;5.00;;;;;25.92;46.88;99864.16;5074249;28;45394;-69
2022/06/24 10:47:08;;;;;;;;;5.00;3.00;;;;;25.94;46.83;99862.13;5076190;27;45319;-69
2022/06/24 10:49:52;;;;;;;;;4.50;4.50;;;;;25.93;46.74;99861.25;5076987;27;45309;-71
2022/06/24 10:52:47;;;;;;;;;14.75;13.75;;;;;26.09;46.57;99859.47;5075132;27;46462;-69
2022/06/24 10:55:24;;;;;;;;;4.75;4.75;;;;;26.14;46.26;99867.00;5075017;27;45385;-69
2022/06/24 10:57:50;;;;;;;;;4.00;2.75;;;;;26.27;46.21;99859.16;5076051;27;45327;-69
2022/06/24 11:00:21;;;;;;;;;3.00;2.00;;;;;26.32;46.29;99864.84;5076423;27;45294;-69
2022/06/24 11:03:11;;;;;;;;;5.25;2.50;;;;;26.34;45.33;99870.91;5076064;27;46405;-70
2022/06/24 11:05:39;;;;;;;;;5.00;4.00;;;;;26.44;45.40;99859.00;5075740;28;45197;-71
2022/06/24 11:08:35;;;;;;;;;5.25;4.75;;;;;26.62;45.04;99845.19;5075629;27;45333;-70
2022/06/24 11:11:00;;;;;;;;;4.25;4.25;;;;;26.77;45.07;99850.59;5090464;27;45646;-71
2022/06/24 11:13:26;;;;;;;;;2.00;2.00;;;;;26.98;44.92;99850.72;5075301;27;45311;-70
2022/06/24 11:15:54;;;;;;;;;5.75;3.00;;;;;27.27;44.21;99862.47;5075493;27;45412;-69
2022/06/24 11:18:23;;;;;;;;;3.00;2.50;;;;;27.51;44.29;99860.50;5075743;27;45280;-67
2022/06/24 11:21:01;;;;;;;;;3.00;2.50;;;;;27.69;43.44;99860.06;5075910;27;45571;-70
2022/06/24 11:23:32;;;;;;;;;2.00;2.00;;;;;27.88;42.32;99851.53;5075173;27;45413;-69
2022/06/24 11:26:03;;;;;;;;;2.00;2.00;;;;;28.05;42.99;99847.53;5075027;28;45234;-70
2022/06/24 11:28:33;;;;;;;;;2.00;2.00;;;;;28.10;42.47;99855.88;5075020;27;45428;-70
2022/06/24 11:31:25;;;;;;;;;1.25;1.25;;;;;28.07;42.79;99850.88;5075576;27;45298;-69
2022/06/24 11:34:10;;;;;;;;;2.00;2.00;;;;;28.18;41.30;99856.81;5075412;27;47236;-70
2022/06/24 11:36:37;;;;;;;;;2.00;2.00;;;;;28.15;41.60;99866.16;5074856;27;45286;-70
2022/06/24 11:39:07;;;;;;;;;2.00;2.00;;;;;28.08;41.18;99867.91;5075303;27;45255;-70
2022/06/24 11:41:45;;;;;;;;;2.00;2.00;;;;;28.01;41.47;99875.97;5075729;27;45533;-70
2022/06/24 11:44:11;;;;;;;;;3.00;3.00;;;;;28.02;41.74;99874.94;5075563;27;46295;-70
2022/06/24 11:46:37;;;;;;;;;1.75;1.75;;;;;27.98;42.06;99873.66;5075093;27;45290;-71